Galesburg, IL

9:53 AM CDT on May 30, 2015 (GMT -0500)
Macomb Municipal | | Change Station
CLOSE
Current Station
Airport
Location: Macomb,
Elevation: 709 ft
Nearby Weather Stations

Elev 709 ft 40.52 °N, 90.65 °W | Updated 18 minutes ago

Rain
Rain
66 °F
Feels Like 66 °F
N
0
Wind Variable Wind from North

Today
High -- | Low -- °F
--% Chance of Precip.
Yesterday
High -- | Low -- °F
Precip. -- in
5:32 AM 8:25 PM
Waxing Gibbous, 90% visible
Pressure 30.01 in
Visibility 7.0 miles
Clouds Scattered Clouds 400 ft
Scattered Clouds 5000 ft
Overcast 6500 ft
Dew Point 65 °F
Humidity 96%
Rainfall 0.33 in
Snow Depth Not available.
UV 2 out of 12
Pollen 4.60 out of 12
Air Quality Not available.
Flu Activity Sporadic
METAR KMQB 301435Z AUTO 00000KT 7SM -RA SCT004 SCT050 OVC065 19/18 A3001 RMK AO2 T01900184

More Conditions Fewer Conditions

Pressure 30.01 in
Visibility 7.0 miles
Clouds Scattered Clouds 400 ft
Scattered Clouds 5000 ft
Overcast 6500 ft
Dew Point 65 °F
Humidity 96%
Rainfall 0.33 in
Snow Depth Not available.
UV 2 out of 12
Pollen 4.60 out of 12
Air Quality Not available.
Flu Activity Sporadic
METAR KMQB 301435Z AUTO 00000KT 7SM -RA SCT004 SCT050 OVC065 19/18 A3001 RMK AO2 T01900184

More Conditions Fewer Conditions

10-Day Weather Forecast

Almanac

Astronomy

May. 30, 2015 Rise Set
Actual Time
Civil Twilight
Nautical Twilight
Astronomical Twilight
Moon
Length of Visible Light
Length of Day
Tomorrow will be .
, % of the Moon is Illuminated

Today's Extremes

State Highs State Lows

Community

WunderPhotos

Upload Photos

1,825,528 photos uploaded!

WunderBlogs® & News

Nearby

Air Quality

  Air Quality AQ Index Pollutant
Not available.

Snow Depth

Station Depth Elevation

Earthquake Activity

City Distance Mag. Time & Date
Minimum magnitude displayed is 2.5.

Coastal Water Temperatures

Place Temperature

Stations

Nearby Weather Stations

Station Location Temp. Windchill Dew Point Humidity Wind Precip. Elev Updated Type